首页
METAR-TAF:

METAR-TAF

机场 :

达累斯萨拉姆, 坦桑尼亚

朱利叶斯·尼雷尔国际机场

纬度: 06-52S, 经度: 039-12E, 海拔: 55米

当前天气观测

该预报发布于55分钟前的06:00 UTC
风速5节,风向
温度 28°C
湿度 84%
气压 1014 hPa
能见度10公里或以上
少量云层高于1600英尺

METAR: HTDA 250600Z 17005KT 9999 FEW016 28/25 Q1014 NOSIG

时间: 09:55 (06:55 UTC)

预报

该预报发布于1小时和55分钟前的05:00 UTC
预报有效从25日的 06点(UTC)到 26日的 12点(UTC)
风速10节,风向
能见度10公里或以上
多云层高于2600英尺
成为
从 25日的 14点(UTC)到 25日的 17点(UTC)
散云层高于2000英尺
从 25日的 2000点(UTC)
风速节,风向
成为
从 26日的 05点(UTC)到 26日的 08点(UTC)
风速10节,风向南转西南
多云层高于2100英尺
少量云层高于2200英尺, 积雨云.

TAF: HTDA 250500Z 2506/2612 18010KT 9999 BKN026 BECMG 2514/2517 SCT020 FM252000 00000KT BECMG 2605/2608 21010KT BKN021 FEW022CB

超过4000个机场的气象观测和天气预报(METAR&TAF报告)。

可查询的气象台以黄色和红色小点在地图上表示。

将鼠标移到小点上方,可查看气象台名称。

然后点击查看天气观测和预报。

如需切换地图:点击带黑十字的绿色按钮放大地图;点击带横线的绿色按钮缩小地图;或者点击绿色箭头查看邻近地区的地图。


METAR-TAF: